Time;durP1;ratioP1;P1;durP2;ratioP2;P2;SDS_P1;SDS_P2;PMS_P1;PMS_P2;Temp;Humidity;BMP_temperature;BMP_pressure;BME280_temperature;BME280_humidity;BME280_pressure;Samples;Min_cycle;Max_cycle;Signal;HPM_P1;HPM_P2
2024/01/17 00:00:09;;;;;;;32.80;21.30;;;;;;;-1.47;100.00;99660.96;110780;1257;21969;-77
2024/01/17 00:03:06;;;;;;;39.60;22.80;;;;;;;-1.50;100.00;99663.36;110670;1260;21991;-77
2024/01/17 00:05:39;;;;;;;30.70;21.30;;;;;;;-1.49;100.00;99663.02;111126;1254;23762;-77
2024/01/17 00:08:11;;;;;;;30.40;20.50;;;;;;;-1.47;100.00;99658.08;111274;1254;24360;-77
2024/01/17 00:10:45;;;;;;;32.30;21.60;;;;;;;-1.47;100.00;99659.79;111145;1254;21955;-77
2024/01/17 00:13:14;;;;;;;37.40;22.70;;;;;;;-1.48;100.00;99659.95;111097;1254;21957;-78
2024/01/17 00:15:43;;;;;;;36.10;23.80;;;;;;;-1.52;100.00;99655.34;111106;1254;22877;-78
2024/01/17 00:18:13;;;;;;;39.20;25.00;;;;;;;-1.55;100.00;99649.20;111106;1254;21959;-78
2024/01/17 00:20:41;;;;;;;40.40;29.00;;;;;;;-1.58;100.00;99650.91;111208;1255;21984;-77
2024/01/17 00:23:12;;;;;;;44.70;29.70;;;;;;;-1.61;100.00;99650.91;111083;1254;21967;-78
2024/01/17 00:25:45;;;;;;;38.60;28.50;;;;;;;-1.65;100.00;99652.43;111193;1254;21957;-77
2024/01/17 00:28:17;;;;;;;42.50;29.50;;;;;;;-1.70;100.00;99653.63;110863;1255;21958;-76
2024/01/17 00:30:50;;;;;;;40.90;28.80;;;;;;;-1.74;100.00;99651.58;110993;1254;21918;-77
2024/01/17 00:33:22;;;;;;;38.70;27.80;;;;;;;-1.76;100.00;99652.42;110643;1259;23618;-76
2024/01/17 00:35:53;;;;;;;38.80;28.10;;;;;;;-1.79;100.00;99653.61;110775;1259;22718;-77
2024/01/17 00:38:25;;;;;;;37.20;24.90;;;;;;;-1.82;100.00;99652.42;110681;1253;21966;-77
2024/01/17 00:40:55;;;;;;;38.40;23.60;;;;;;;-1.86;100.00;99649.85;110754;1259;22005;-76
2024/01/17 00:43:26;;;;;;;35.60;23.60;;;;;;;-1.88;100.00;99647.80;110751;1259;22243;-77
2024/01/17 00:45:55;;;;;;;37.00;25.40;;;;;;;-1.88;100.00;99643.38;110762;1259;22041;-78
2024/01/17 00:48:24;;;;;;;38.80;24.60;;;;;;;-1.86;100.00;99640.98;110809;1259;22304;-78
2024/01/17 00:50:52;;;;;;;40.30;26.00;;;;;;;-1.87;100.00;99639.27;110679;1254;21960;-77
2024/01/17 00:53:29;;;;;;;35.00;24.10;;;;;;;-1.88;100.00;99639.63;110599;1259;21975;-77
2024/01/17 00:56:00;;;;;;;41.60;26.70;;;;;;;-1.91;100.00;99638.77;110232;1265;22561;-77
2024/01/17 00:58:29;;;;;;;44.00;29.60;;;;;;;-1.96;100.00;99632.45;109720;1270;23722;-78
2024/01/17 01:00:58;;;;;;;47.20;28.40;;;;;;;-1.98;100.00;99637.05;108884;1276;23074;-78
2024/01/17 01:03:29;;;;;;;40.70;27.40;;;;;;;-2.02;100.00;99638.06;108808;1277;23714;-78
2024/01/17 01:05:57;;;;;;;38.80;26.40;;;;;;;-2.08;100.00;99637.89;108747;1280;22014;-78
2024/01/17 01:08:26;;;;;;;37.00;25.40;;;;;;;-2.14;100.00;99634.81;108800;1279;22921;-78
2024/01/17 01:10:59;;;;;;;38.00;26.20;;;;;;;-2.19;100.00;99630.87;108894;1274;21955;-74
2024/01/17 01:13:28;;;;;;;37.00;25.10;;;;;;;-2.23;100.00;99626.59;108850;1274;22198;-76
2024/01/17 01:15:56;;;;;;;33.60;23.80;;;;;;;-2.25;100.00;99624.88;109263;1272;21978;-77
2024/01/17 01:18:25;;;;;;;33.30;23.70;;;;;;;-2.27;100.00;99624.54;109591;1263;22751;-77
2024/01/17 01:20:53;;;;;;;32.80;23.20;;;;;;;-2.30;100.00;99626.75;110328;1259;21970;-77
2024/01/17 01:23:27;;;;;;;38.90;24.70;;;;;;;-2.31;100.00;99622.66;110846;1259;22235;-78
2024/01/17 01:25:56;;;;;;;37.10;24.30;;;;;;;-2.32;100.00;99621.63;110637;1259;21975;-78
2024/01/17 01:28:28;;;;;;;36.90;27.20;;;;;;;-2.36;100.00;99614.81;110704;1259;23683;-77
2024/01/17 01:30:56;;;;;;;43.70;26.80;;;;;;;-2.43;100.00;99611.71;110592;1254;21977;-77
2024/01/17 01:33:28;;;;;;;46.10;27.30;;;;;;;-2.51;100.00;99612.02;111007;1255;21988;-78
2024/01/17 01:35:59;;;;;;;40.80;27.50;;;;;;;-2.57;100.00;99607.91;111122;1255;23650;-80
2024/01/17 01:38:31;;;;;;;44.50;30.10;;;;;;;-2.60;100.00;99599.56;111082;1254;21974;-77
2024/01/17 01:41:05;;;;;;;48.60;29.40;;;;;;;-2.60;100.00;99600.40;111039;1255;21960;-78
2024/01/17 01:43:36;;;;;;;46.60;32.20;;;;;;;-2.60;100.00;99597.01;111176;1255;21970;-79
2024/01/17 01:46:27;;;;;;;48.40;32.00;;;;;;;-2.62;100.00;99596.66;111071;1254;21948;-78
2024/01/17 01:48:59;;;;;;;49.90;32.10;;;;;;;-2.70;100.00;99593.39;111290;1254;21968;-79
2024/01/17 01:51:29;;;;;;;51.90;32.40;;;;;;;-2.76;100.00;99591.50;110630;1260;23690;-78
2024/01/17 01:54:02;;;;;;;49.30;32.60;;;;;;;-2.82;100.00;99588.92;110756;1259;22701;-78
2024/01/17 01:56:36;;;;;;;42.20;29.90;;;;;;;-2.89;100.00;99585.82;110673;1257;23374;-79
2024/01/17 01:59:10;;;;;;;45.50;28.50;;;;;;;-2.99;100.00;99585.61;110698;1259;23605;-77
2024/01/17 02:01:44;;;;;;;46.00;30.00;;;;;;;-3.12;100.00;99580.27;110684;1260;21980;-78
2024/01/17 02:04:16;;;;;;;43.40;27.70;;;;;;;-3.23;100.00;99576.29;110691;1260;21982;-76
2024/01/17 02:06:49;;;;;;;43.90;29.30;;;;;;;-3.29;100.00;99576.59;110764;1259;21982;-78
2024/01/17 02:09:19;;;;;;;45.70;28.70;;;;;;;-3.35;100.00;99575.37;110639;1260;23693;-77
2024/01/17 02:11:51;;;;;;;44.70;29.90;;;;;;;-3.36;100.00;99571.63;110671;1259;21977;-77
2024/01/17 02:14:22;;;;;;;52.00;32.40;;;;;;;-3.37;100.00;99566.51;110855;1258;23710;-77
2024/01/17 02:16:58;;;;;;;46.30;30.70;;;;;;;-3.37;100.00;99566.51;110696;1259;23508;-78
2024/01/17 02:19:31;;;;;;;46.60;30.50;;;;;;;-3.38;100.00;99564.63;110813;1259;22045;-77
2024/01/17 02:22:03;;;;;;;42.40;29.40;;;;;;;-3.38;100.00;99563.44;110878;1260;22546;-78
2024/01/17 02:24:35;;;;;;;44.70;29.30;;;;;;;-3.40;100.00;99558.66;110799;1260;21972;-77
2024/01/17 02:27:04;;;;;;;48.90;31.80;;;;;;;-3.41;100.00;99554.91;110373;1260;22119;-78
2024/01/17 02:29:38;;;;;;;47.60;29.30;;;;;;;-3.41;100.00;99554.74;110813;1259;22006;-79
2024/01/17 02:32:09;;;;;;;44.00;30.70;;;;;;;-3.43;100.00;99557.13;110844;1259;22077;-78
2024/01/17 02:34:39;;;;;;;43.00;30.60;;;;;;;-3.46;100.00;99557.61;110816;1259;21969;-78
2024/01/17 02:37:14;;;;;;;48.50;30.70;;;;;;;-3.50;100.00;99556.05;110700;1259;24191;-78
2024/01/17 02:39:42;;;;;;;45.10;30.60;;;;;;;-3.56;100.00;99557.04;110688;1260;24145;-78
2024/01/17 02:42:10;;;;;;;49.10;33.90;;;;;;;-3.59;100.00;99564.32;110655;1259;23709;-78
2024/01/17 02:44:41;;;;;;;45.00;33.90;;;;;;;-3.63;100.00;99565.48;110946;1255;21974;-78
2024/01/17 02:47:10;;;;;;;45.70;34.60;;;;;;;-3.66;100.00;99565.13;111117;1255;21968;-78
2024/01/17 02:49:42;;;;;;;50.80;35.00;;;;;;;-3.71;100.00;99565.94;110726;1259;22019;-77
2024/01/17 02:52:11;;;;;;;52.30;35.40;;;;;;;-3.78;100.00;99561.80;110299;1264;22940;-79
2024/01/17 02:54:40;;;;;;;46.30;34.50;;;;;;;-3.82;100.00;99561.27;110345;1264;21977;-78
2024/01/17 02:57:10;;;;;;;46.60;32.60;;;;;;;-3.86;100.00;99557.49;110372;1263;23717;-79
2024/01/17 02:59:38;;;;;;;50.70;33.20;;;;;;;-3.91;100.00;99557.79;110131;1263;21990;-80
2024/01/17 03:02:09;;;;;;;46.30;34.60;;;;;;;-3.93;100.00;99561.01;110308;1263;21968;-79
2024/01/17 03:04:38;;;;;;;53.10;34.50;;;;;;;-3.95;100.00;99559.98;109970;1268;23033;-79
2024/01/17 03:07:06;;;;;;;46.00;31.10;;;;;;;-3.98;100.00;99556.38;109664;1266;21990;-78
2024/01/17 03:09:38;;;;;;;49.50;30.60;;;;;;;-4.01;100.00;99557.21;110252;1261;21990;-77
2024/01/17 03:12:07;;;;;;;50.40;32.20;;;;;;;-4.02;100.00;99558.73;110228;1266;21977;-78
2024/01/17 03:14:38;;;;;;;47.30;32.00;;;;;;;-4.01;100.00;99558.05;110366;1266;23728;-78
2024/01/17 03:17:15;;;;;;;42.70;29.40;;;;;;;-4.02;100.00;99559.07;110303;1266;21957;-78
2024/01/17 03:19:48;;;;;;;44.00;30.50;;;;;;;-4.02;100.00;99556.17;110356;1266;21970;-78
2024/01/17 03:22:22;;;;;;;46.10;29.40;;;;;;;-4.05;100.00;99555.48;110463;1260;21966;-79
2024/01/17 03:24:51;;;;;;;42.10;31.00;;;;;;;-4.08;100.00;99555.45;110345;1266;22463;-78
2024/01/17 03:27:19;;;;;;;43.40;28.80;;;;;;;-4.09;100.00;99552.38;109145;1271;304263;-78
2024/01/17 03:29:48;;;;;;;41.10;29.10;;;;;;;-4.09;100.00;99551.70;109438;1272;24311;-79
2024/01/17 03:32:22;;;;;;;43.20;29.60;;;;;;;-4.10;100.00;99547.78;109524;1265;22763;-79
2024/01/17 03:34:51;;;;;;;44.40;30.70;;;;;;;-4.15;100.00;99546.20;109429;1272;23049;-78
2024/01/17 03:37:26;;;;;;;39.30;28.60;;;;;;;-4.19;100.00;99546.85;109836;1268;23602;-78
2024/01/17 03:40:05;;;;;;;37.80;27.50;;;;;;;-4.22;100.00;99544.61;110058;1268;23624;-79
2024/01/17 03:42:36;;;;;;;44.90;29.00;;;;;;;-4.24;100.00;99545.44;110017;1268;21992;-79
2024/01/17 03:45:12;;;;;;;42.20;29.20;;;;;;;-4.28;100.00;99548.64;110027;1262;22007;-79
2024/01/17 03:47:43;;;;;;;44.80;30.20;;;;;;;-4.32;100.00;99546.40;110621;1261;21964;-79
2024/01/17 03:50:14;;;;;;;43.60;29.50;;;;;;;-4.37;100.00;99543.96;111110;1255;21986;-78
2024/01/17 03:52:47;;;;;;;46.50;30.50;;;;;;;-4.39;100.00;99543.44;111323;1254;22716;-80
2024/01/17 03:55:21;;;;;;;47.80;33.10;;;;;;;-4.42;100.00;99542.39;111444;1254;23622;-80
2024/01/17 03:57:50;;;;;;;47.90;33.90;;;;;;;-4.45;100.00;99546.10;111201;1246;21958;-78
2024/01/17 04:00:23;;;;;;;55.70;35.90;;;;;;;-4.47;100.00;99547.27;111316;1254;21949;-79
2024/01/17 04:02:53;;;;;;;46.10;32.90;;;;;;;-4.51;100.00;99546.89;111255;1254;22576;-78
2024/01/17 04:05:22;;;;;;;43.50;31.90;;;;;;;-4.54;100.00;99547.88;111159;1254;21940;-79
2024/01/17 04:07:51;;;;;;;49.00;34.00;;;;;;;-4.56;100.00;99552.25;111140;1251;23013;-79
2024/01/17 04:10:29;;;;;;;44.60;31.20;;;;;;;-4.60;100.00;99548.16;111223;1254;22438;-79
2024/01/17 04:12:58;;;;;;;71.50;47.40;;;;;;;-4.63;100.00;99548.80;111363;1254;23586;-77
2024/01/17 04:15:27;;;;;;;50.80;34.70;;;;;;;-4.63;100.00;99550.84;110739;1259;23683;-79
2024/01/17 04:17:58;;;;;;;50.90;35.00;;;;;;;-4.62;100.00;99548.81;110318;1265;22921;-79
2024/01/17 04:20:31;;;;;;;89.50;63.30;;;;;;;-4.62;100.00;99541.69;110296;1266;21973;-79
2024/01/17 04:23:04;;;;;;;49.80;36.10;;;;;;;-4.62;100.00;99541.51;109630;1270;23614;-77
2024/01/17 04:25:36;;;;;;;47.10;31.70;;;;;;;-4.63;100.00;99535.04;109482;1257;21987;-78
2024/01/17 04:28:18;;;;;;;;;;;;;;;;;;;;;
2024/01/17 04:30:47;;;;;;;44.70;30.60;;;;;;;-4.69;100.00;99526.48;109297;1274;22489;-78
2024/01/17 04:33:16;;;;;;;47.80;31.00;;;;;;;-4.72;100.00;99520.52;108907;1275;22272;-76
2024/01/17 04:35:47;;;;;;;47.20;32.50;;;;;;;-4.75;100.00;99524.73;109320;1271;22049;-77
2024/01/17 04:38:16;;;;;;;51.20;36.20;;;;;;;-4.77;100.00;99523.02;109043;1274;24139;-77
2024/01/17 04:40:47;;;;;;;47.40;31.80;;;;;;;-4.78;100.00;99524.02;109181;1270;21991;-78
2024/01/17 04:43:16;;;;;;;;;;;;;;;-4.82;100.00;99520.08;109130;1274;21965;-78
2024/01/17 04:45:48;;;;;;;44.40;27.70;;;;;;;-4.93;100.00;99518.41;109103;1274;21990;-76
2024/01/17 04:48:17;;;;;;;45.80;29.70;;;;;;;-4.97;100.00;99507.86;109012;1274;22665;-77
2024/01/17 04:50:52;;;;;;;42.80;30.40;;;;;;;-4.99;100.00;99502.23;109084;1274;21977;-77
2024/01/17 04:53:25;;;;;;;44.00;29.10;;;;;;;-5.00;100.00;99493.58;108932;1273;21983;-77
2024/01/17 04:55:53;;;;;;;46.00;28.40;;;;;;;-5.01;100.00;99490.34;108775;1274;23088;-78
2024/01/17 04:58:22;;;;;;;41.70;28.30;;;;;;;-5.02;100.00;99487.94;109451;1268;21970;-76
2024/01/17 05:00:52;;;;;;;46.90;33.10;;;;;;;-5.04;100.00;99479.79;110028;1266;21972;-78
2024/01/17 05:03:20;;;;;;;43.10;29.70;;;;;;;-5.04;100.00;99475.21;109794;1267;23043;-78
2024/01/17 05:05:49;;;;;;;44.00;28.20;;;;;;;-5.05;100.00;99468.23;110293;1265;22007;-78
2024/01/17 05:08:18;;;;;;;43.60;30.50;;;;;;;-5.05;100.00;99465.02;109988;1267;21980;-76
2024/01/17 05:10:47;;;;;;;42.30;28.50;;;;;;;-5.07;100.00;99461.42;110011;1266;23709;-77
2024/01/17 05:13:19;;;;;;;41.00;29.60;;;;;;;-5.11;100.00;99454.43;109957;1266;21973;-79
2024/01/17 05:15:49;;;;;;;45.70;31.90;;;;;;;-5.14;100.00;99452.36;110092;1266;21955;-77
2024/01/17 05:18:20;;;;;;;47.90;32.50;;;;;;;-5.18;100.00;99446.70;109609;1266;22932;-77
2024/01/17 05:20:49;;;;;;;56.10;34.30;;;;;;;-5.22;100.00;99444.63;109907;1265;22058;-78
2024/01/17 05:23:20;;;;;;;52.10;35.70;;;;;;;-5.23;100.00;99440.89;110111;1266;22418;-79
2024/01/17 05:25:51;;;;;;;46.10;33.50;;;;;;;-5.24;100.00;99441.73;109864;1265;22029;-77
2024/01/17 05:28:23;;;;;;;51.50;34.70;;;;;;;-5.24;100.00;99438.48;110081;1265;24294;-79
2024/01/17 05:30:51;;;;;;;51.70;33.20;;;;;;;-5.26;100.00;99439.66;109724;1268;22013;-76
2024/01/17 05:33:19;;;;;;;52.10;34.20;;;;;;;-5.28;100.00;99441.34;109710;1270;23706;-77
2024/01/17 05:35:47;;;;;;;56.10;36.60;;;;;;;-5.29;100.00;99435.73;109793;1268;23744;-78
2024/01/17 05:38:16;;;;;;;56.50;36.30;;;;;;;-5.30;100.00;99431.48;109922;1266;21980;-77
2024/01/17 05:40:44;;;;;;;63.70;40.40;;;;;;;-5.32;100.00;99426.02;110061;1265;23738;-78
2024/01/17 05:43:15;;;;;;;63.20;42.10;;;;;;;-5.35;100.00;99423.45;110334;1260;22128;-77
2024/01/17 05:45:43;;;;;;;57.80;38.40;;;;;;;-5.38;100.00;99421.55;110809;1259;23659;-77
2024/01/17 05:48:11;;;;;;;57.20;36.20;;;;;;;-5.39;100.00;99422.89;110663;1260;22108;-78
2024/01/17 05:50:41;;;;;;;55.00;35.40;;;;;;;-5.40;100.00;99424.75;110505;1263;22453;-77
2024/01/17 05:53:10;;;;;;;62.00;38.90;;;;;;;-5.41;100.00;99424.40;110354;1263;21981;-79
2024/01/17 05:55:38;;;;;;;56.60;37.90;;;;;;;-5.40;100.00;99426.44;110578;1259;21958;-78
2024/01/17 05:58:06;;;;;;;54.30;37.00;;;;;;;-5.40;100.00;99420.67;110889;1259;23699;-77
2024/01/17 06:00:34;;;;;;;56.20;38.60;;;;;;;-5.40;100.00;99418.13;110707;1258;22742;-78
2024/01/17 06:03:02;;;;;;;51.30;33.40;;;;;;;-5.41;100.00;99417.11;110752;1259;22060;-77
2024/01/17 06:05:30;;;;;;;66.30;39.90;;;;;;;-5.40;100.00;99417.45;110352;1263;21969;-78
2024/01/17 06:07:58;;;;;;;61.50;38.60;;;;;;;-5.38;100.00;99416.98;110421;1260;23602;-79
2024/01/17 06:10:28;;;;;;;56.20;38.10;;;;;;;-5.36;100.00;99413.60;110582;1259;23752;-78
2024/01/17 06:12:56;;;;;;;59.30;40.30;;;;;;;-5.36;100.00;99413.60;110753;1259;24894;-77
2024/01/17 06:15:24;;;;;;;63.20;43.20;;;;;;;-5.37;100.00;99409.02;110820;1259;21965;-78
2024/01/17 06:17:54;;;;;;;58.80;40.50;;;;;;;-5.37;100.00;99407.14;110695;1260;21986;-79
2024/01/17 06:20:24;;;;;;;62.30;43.50;;;;;;;-5.38;100.00;99409.16;110701;1260;21989;-78
2024/01/17 06:22:52;;;;;;;65.40;42.80;;;;;;;-5.39;100.00;99410.34;110795;1254;22010;-78
2024/01/17 06:25:22;;;;;;;70.90;47.00;;;;;;;-5.39;100.00;99408.83;111180;1254;23676;-78
2024/01/17 06:27:53;;;;;;;65.30;46.20;;;;;;;-5.41;100.00;99407.95;111198;1254;21962;-78
2024/01/17 06:30:22;;;;;;;66.50;45.50;;;;;;;-5.42;100.00;99407.59;110688;1260;21969;-78
2024/01/17 06:32:55;;;;;;;67.00;43.60;;;;;;;-5.44;100.00;99401.30;110665;1260;21995;-78
2024/01/17 06:35:24;;;;;;;64.10;44.10;;;;;;;-5.46;100.00;99402.46;110690;1260;23641;-78
2024/01/17 06:37:54;;;;;;;65.70;44.40;;;;;;;-5.49;100.00;99399.05;110467;1260;22734;-78
2024/01/17 06:40:22;;;;;;;85.40;58.10;;;;;;;-5.49;100.00;99396.34;110656;1260;23008;-78
2024/01/17 06:42:51;;;;;;;73.50;46.10;;;;;;;-5.49;100.00;99397.02;110214;1265;22071;-78
2024/01/17 06:45:26;;;;;;;71.00;49.30;;;;;;;-5.49;100.00;99399.55;110039;1265;21964;-78
2024/01/17 06:48:02;;;;;;;66.40;44.50;;;;;;;-5.49;100.00;99396.50;110386;1260;22072;-77
2024/01/17 06:50:34;;;;;;;77.10;48.70;;;;;;;-5.52;100.00;99394.95;110696;1260;21976;-77
2024/01/17 06:53:03;;;;;;;66.50;45.90;;;;;;;-5.53;100.00;99388.98;110251;1264;22454;-78
2024/01/17 06:55:34;;;;;;;73.40;46.20;;;;;;;-5.54;100.00;99383.56;110513;1264;21976;-78
2024/01/17 06:58:03;;;;;;;67.40;47.00;;;;;;;-5.56;100.00;99382.67;109560;1268;21982;-77
2024/01/17 07:00:32;;;;;;;75.70;52.30;;;;;;;-5.56;100.00;99377.92;110001;1264;22837;-78
2024/01/17 07:03:02;;;;;;;77.30;50.30;;;;;;;-5.58;100.00;99375.19;110467;1261;22432;-78
2024/01/17 07:05:30;;;;;;;75.60;49.50;;;;;;;-5.58;100.00;99377.23;110399;1264;21970;-79
2024/01/17 07:07:59;;;;;;;81.80;53.10;;;;;;;-5.56;100.00;99375.55;109967;1268;24131;-79
2024/01/17 07:10:31;;;;;;;81.00;52.20;;;;;;;-5.54;100.00;99371.35;109523;1268;21986;-79
2024/01/17 07:13:01;;;;;;;76.90;51.50;;;;;;;-5.51;100.00;99364.59;109796;1268;22028;-80
2024/01/17 07:15:40;;;;;;;76.00;50.30;;;;;;;-5.48;100.00;99358.54;109467;1262;24077;-78
2024/01/17 07:18:13;;;;;;;77.10;48.60;;;;;;;-5.49;100.00;99347.16;109193;1272;22190;-78
2024/01/17 07:20:42;;;;;;;77.50;53.00;;;;;;;-5.45;100.00;99343.64;109344;1272;23058;-78
2024/01/17 07:23:12;;;;;;;93.00;63.30;;;;;;;-5.43;100.00;99339.77;109678;1268;21980;-79
2024/01/17 07:26:05;;;;;;;72.40;50.60;;;;;;;-5.39;100.00;99339.80;109951;1267;23699;-78
2024/01/17 07:28:37;;;;;;;72.60;46.90;;;;;;;-5.35;100.00;99339.16;109766;1268;21971;-79
2024/01/17 07:31:19;;;;;;;64.70;43.30;;;;;;;-5.31;100.00;99341.41;109852;1271;22018;-78
2024/01/17 07:33:52;;;;;;;98.30;69.50;;;;;;;-5.30;100.00;99340.91;110150;1265;22218;-80
2024/01/17 07:36:26;;;;;;;112.70;69.30;;;;;;;-5.28;100.00;99336.34;110456;1260;22032;-79
2024/01/17 07:38:58;;;;;;;101.00;66.50;;;;;;;-5.25;100.00;99338.42;110629;1260;21971;-79
2024/01/17 07:41:37;;;;;;;82.20;56.80;;;;;;;-5.24;100.00;99335.38;110783;1258;23039;-79
2024/01/17 07:44:07;;;;;;;75.40;49.00;;;;;;;-5.21;100.00;99331.33;109986;1267;21974;-78
2024/01/17 07:46:41;;;;;;;63.40;42.80;;;;;;;-5.17;100.00;99325.94;109717;1265;22127;-79
2024/01/17 07:49:12;;;;;;;78.30;45.90;;;;;;;-5.17;100.00;99307.45;110078;1260;23586;-78
2024/01/17 07:51:48;;;;;;;73.80;43.00;;;;;;;-5.04;100.00;99310.95;110596;1260;22585;-80
2024/01/17 07:54:19;;;;;;;68.20;44.20;;;;;;;-4.99;100.00;99309.98;110757;1260;24328;-78
2024/01/17 07:56:50;;;;;;;70.00;44.70;;;;;;;-4.94;100.00;99305.44;110585;1260;23792;-79
2024/01/17 07:59:22;;;;;;;91.20;57.70;;;;;;;-4.91;100.00;99298.17;110671;1260;21965;-78
2024/01/17 08:01:56;;;;;;;98.00;62.80;;;;;;;-4.87;100.00;99288.19;110809;1255;21954;-79
2024/01/17 08:04:27;;;;;;;60.50;40.10;;;;;;;-4.82;100.00;99281.94;110461;1260;22821;-80
2024/01/17 08:07:01;;;;;;;63.50;40.40;;;;;;;-4.78;100.00;99274.66;110879;1261;21982;-79
2024/01/17 08:09:33;;;;;;;69.20;46.10;;;;;;;-4.76;100.00;99265.02;110688;1258;22125;-78
2024/01/17 08:12:04;;;;;;;69.60;47.90;;;;;;;-4.69;100.00;99263.52;110681;1249;23018;-77
2024/01/17 08:14:34;;;;;;;63.00;46.20;;;;;;;-4.62;100.00;99258.64;110773;1259;24422;-78
2024/01/17 08:17:05;;;;;;;61.40;44.40;;;;;;;-4.53;100.00;99248.84;110788;1259;22019;-77
2024/01/17 08:19:36;;;;;;;83.00;51.40;;;;;;;-4.40;100.00;99246.88;110737;1259;21978;-77
2024/01/17 08:22:13;;;;;;;102.30;58.60;;;;;;;-4.32;100.00;99240.63;110892;1254;21965;-78
2024/01/17 08:24:45;;;;;;;84.00;49.70;;;;;;;-4.21;100.00;99243.91;111326;1252;23777;-77
2024/01/17 08:27:23;;;;;;;53.70;37.20;;;;;;;-4.14;100.00;99236.45;111325;1253;21963;-79
2024/01/17 08:29:53;;;;;;;58.70;37.10;;;;;;;-4.17;100.00;99226.08;111515;1251;21961;-77
2024/01/17 08:32:21;;;;;;;59.80;37.80;;;;;;;-4.19;100.00;99217.57;111284;1253;21967;-78
2024/01/17 08:34:49;;;;;;;57.40;38.50;;;;;;;-4.20;100.00;99214.35;111226;1253;21964;-77
2024/01/17 08:37:20;;;;;;;71.40;44.30;;;;;;;-4.18;100.00;99209.08;111221;1253;21954;-78
2024/01/17 08:39:51;;;;;;;68.70;43.80;;;;;;;-4.10;100.00;99203.16;111236;1253;21966;-77
2024/01/17 08:42:22;;;;;;;69.20;44.90;;;;;;;-4.02;100.00;99200.13;111167;1253;22732;-77
2024/01/17 08:44:55;;;;;;;67.00;44.50;;;;;;;-3.91;100.00;99192.00;110676;1259;23787;-78
2024/01/17 08:47:25;;;;;;;65.30;44.70;;;;;;;-3.79;100.00;99184.70;110428;1260;23592;-78
2024/01/17 08:49:56;;;;;;;78.70;48.00;;;;;;;-3.68;100.00;99179.95;110709;1259;23162;-76
2024/01/17 08:52:25;;;;;;;61.50;42.90;;;;;;;-3.56;100.00;99180.65;110888;1259;23813;-78
2024/01/17 08:54:57;;;;;;;65.80;44.80;;;;;;;-3.45;100.00;99173.01;110785;1259;21961;-78
2024/01/17 08:57:33;;;;;;;67.50;43.20;;;;;;;-3.38;100.00;99162.79;110715;1259;23449;-77
2024/01/17 09:00:08;;;;;;;60.20;37.80;;;;;;;-3.26;100.00;99160.23;111091;1258;21992;-76
2024/01/17 09:02:38;;;;;;;58.90;40.50;;;;;;;-3.17;100.00;99155.45;110995;1253;21989;-76
2024/01/17 09:05:27;;;;;;;51.60;37.80;;;;;;;-3.11;100.00;99149.48;111212;1252;23699;-77
2024/01/17 09:08:11;;;;;;;53.70;37.50;;;;;;;-3.03;100.00;99143.85;111330;1253;22217;-78
2024/01/17 09:10:41;;;;;;;53.30;36.90;;;;;;;-2.94;100.00;99137.70;111482;1253;21959;-77
2024/01/17 09:13:16;;;;;;;57.60;39.10;;;;;;;-2.82;100.00;99128.98;111241;1252;21958;-75
2024/01/17 09:16:06;;;;;;;60.50;39.60;;;;;;;-2.68;100.00;99120.08;111428;1252;21960;-77
2024/01/17 09:18:47;;;;;;;61.90;39.10;;;;;;;-2.54;100.00;99113.05;111374;1253;23010;-76
2024/01/17 09:21:20;;;;;;;51.80;37.70;;;;;;;-2.40;100.00;99107.17;111344;1253;22706;-76
2024/01/17 09:23:51;;;;;;;48.20;36.40;;;;;;;-2.24;100.00;99103.69;111125;1253;22430;-76
2024/01/17 09:26:28;;;;;;;56.60;38.10;;;;;;;-2.07;100.00;99095.21;111334;1253;21955;-76
2024/01/17 09:29:03;;;;;;;51.20;35.20;;;;;;;-1.90;100.00;99085.21;110939;1257;21976;-78
2024/01/17 09:31:36;;;;;;;52.90;37.40;;;;;;;-1.80;100.00;99080.88;110674;1259;22956;-77
2024/01/17 09:34:13;;;;;;;49.20;37.80;;;;;;;-1.71;100.00;99078.92;110310;1265;21979;-76
2024/01/17 09:36:44;;;;;;;55.50;37.60;;;;;;;-1.59;100.00;99065.16;110427;1263;21999;-77
2024/01/17 09:39:19;;;;;;;54.00;38.90;;;;;;;-1.42;100.00;99056.66;110423;1264;22657;-76
2024/01/17 09:41:47;;;;;;;48.70;35.10;;;;;;;-1.25;100.00;99053.05;110455;1263;21989;-76
2024/01/17 09:44:16;;;;;;;49.40;37.10;;;;;;;-1.08;100.00;99035.12;110417;1264;21971;-77
2024/01/17 09:46:50;;;;;;;49.60;35.10;;;;;;;-0.88;100.00;99025.65;110604;1259;21998;-79
2024/01/17 09:49:20;;;;;;;51.10;36.00;;;;;;;-0.69;100.00;99018.23;110380;1263;23642;-77
2024/01/17 09:51:53;;;;;;;45.60;32.80;;;;;;;-0.52;100.00;99017.16;110481;1258;21969;-77
2024/01/17 09:54:27;;;;;;;47.60;33.10;;;;;;;-0.40;100.00;99013.89;110978;1257;21963;-78
2024/01/17 09:57:07;;;;;;;39.30;28.10;;;;;;;-0.26;100.00;99008.73;110805;1257;22010;-77
2024/01/17 09:59:51;;;;;;;43.00;29.20;;;;;;;-0.13;100.00;99004.27;110982;1257;21967;-77
2024/01/17 10:02:27;;;;;;;38.50;27.70;;;;;;;0.00;100.00;98992.76;110822;1257;21954;-75
2024/01/17 10:05:00;;;;;;;51.20;30.70;;;;;;;0.09;100.00;98983.89;110692;1261;21972;-76
2024/01/17 10:07:34;;;;;;;40.80;27.60;;;;;;;0.14;100.00;98978.48;110409;1261;21977;-76
2024/01/17 10:10:02;;;;;;;38.80;27.50;;;;;;;0.22;100.00;98974.09;110677;1261;22030;-77
2024/01/17 10:12:34;;;;;;;38.20;27.60;;;;;;;0.30;100.00;98964.71;110561;1260;23713;-76
2024/01/17 10:15:32;;;;;;;40.30;26.30;;;;;;;0.41;100.00;98961.06;110785;1260;23020;-77
2024/01/17 10:18:07;;;;;;;36.40;26.00;;;;;;;0.53;100.00;98951.59;110318;1265;21965;-79
2024/01/17 10:20:36;;;;;;;37.20;26.50;;;;;;;0.60;100.00;98939.30;110118;1265;24455;-77
2024/01/17 10:23:09;;;;;;;36.10;23.60;;;;;;;0.64;100.00;98928.09;110524;1262;23454;-78
2024/01/17 10:25:44;;;;;;;45.90;29.90;;;;;;;0.67;100.00;98915.38;110502;1259;21965;-77
2024/01/17 10:28:12;;;;;;;33.30;24.40;;;;;;;0.68;100.00;98904.90;110786;1259;21985;-76
2024/01/17 10:30:40;;;;;;;34.20;24.50;;;;;;;0.72;100.00;98900.02;110723;1260;21961;-78
2024/01/17 10:33:12;;;;;;;35.40;23.30;;;;;;;0.67;100.00;98884.55;110592;1259;23118;-78
2024/01/17 10:35:42;;;;;;;37.40;25.40;;;;;;;0.73;100.00;98869.88;110648;1253;21971;-77
2024/01/17 10:38:11;;;;;;;35.70;24.20;;;;;;;0.92;100.00;98882.30;111311;1252;21951;-78
2024/01/17 10:40:44;;;;;;;35.20;27.00;;;;;;;0.96;100.00;98880.00;111093;1252;21961;-78
2024/01/17 10:43:18;;;;;;;33.80;23.40;;;;;;;0.98;100.00;98872.23;111323;1240;23010;-78
2024/01/17 10:45:50;;;;;;;38.40;25.60;;;;;;;0.99;100.00;98871.70;111130;1254;21988;-78
2024/01/17 10:48:25;;;;;;;39.20;27.40;;;;;;;0.96;100.00;98869.55;111446;1253;21982;-76
2024/01/17 10:51:03;;;;;;;44.80;29.00;;;;;;;0.95;100.00;98864.61;111475;1252;23595;-78
2024/01/17 10:53:36;;;;;;;34.80;24.70;;;;;;;0.99;100.00;98854.91;111138;1253;21956;-78
2024/01/17 10:56:26;;;;;;;34.80;24.70;;;;;;;0.97;100.00;98852.57;111285;1253;21993;-77
2024/01/17 10:58:56;;;;;;;37.20;27.90;;;;;;;0.97;100.00;98850.49;111326;1241;21957;-77
2024/01/17 11:01:37;;;;;;;37.30;26.50;;;;;;;0.98;100.00;98845.00;110813;1254;21968;-77
2024/01/17 11:04:39;;;;;;;34.40;24.00;;;;;;;0.93;100.00;98837.06;110785;1259;21961;-77
2024/01/17 11:07:09;;;;;;;34.80;23.50;;;;;;;0.86;100.00;98830.54;110721;1257;21961;-76
2024/01/17 11:09:39;;;;;;;36.10;24.10;;;;;;;0.81;100.00;98824.64;110791;1259;23734;-77
2024/01/17 11:12:09;;;;;;;35.50;22.40;;;;;;;0.73;100.00;98819.53;110842;1259;22794;-76
2024/01/17 11:14:42;;;;;;;37.30;27.10;;;;;;;0.62;100.00;98818.05;110791;1258;23599;-77
2024/01/17 11:17:10;;;;;;;36.50;24.50;;;;;;;0.55;100.00;98811.86;110820;1260;22078;-76
2024/01/17 11:19:51;;;;;;;39.80;25.50;;;;;;;0.50;100.00;98807.71;111111;1252;23054;-77
2024/01/17 11:22:21;;;;;;;34.30;23.80;;;;;;;0.47;100.00;98804.02;111349;1252;23702;-76
2024/01/17 11:25:23;;;;;;;37.10;23.50;;;;;;;0.49;100.00;98798.33;110600;1258;21998;-77